Terminal Aerodrome Forecast
Issued by NWS

Home | Current Version | Previous Version | Text Only | Print | Product List | Glossary On
Versions: 1 2 3 4 5 6 7 8 9 10 11 12 13 14 15 16 17 18 19 20 21 22 23 24 25 26 27 28
000
FTUS43 KDMX 211127
TAFMCW
TAF
KMCW 211127Z 2112/2212 16008KT 6SM BR VCTS FEW004 BKN035CB OVC080
      TEMPO 2112/2114 VRB15G25KT 3SM TSRA BR SCT007 BKN025CB
     FM211400 17010KT P6SM VCTS SCT040CB OVC100
     FM211600 19012G18KT P6SM FEW045 BKN120
     FM220100 VRB06KT 6SM BR VCTS SCT050CB BKN120
     FM220500 VRB05KT 2SM BR SCT006 BKN120=

USA.gov is the U.S. government's official web portal to all federal, state and local government web resources and services.